Time;durP1;ratioP1;P1;durP2;ratioP2;P2;SDS_P1;SDS_P2;PMS_P1;PMS_P2;Temp;Humidity;BMP_temperature;BMP_pressure;BME280_temperature;BME280_humidity;BME280_pressure;Samples;Min_cycle;Max_cycle;Signal;HPM_P1;HPM_P2
2021/09/28 00:02:12;;;;;;;1.40;1.30;;;;;;;22.95;48.20;99031.06;5036420;28;20190;-59
2021/09/28 00:04:39;;;;;;;1.60;1.40;;;;;;;22.97;48.01;99035.22;5036405;28;20240;-59
2021/09/28 00:07:14;;;;;;;1.20;1.20;;;;;;;22.95;48.16;99044.38;5036619;28;20182;-59
2021/09/28 00:09:40;;;;;;;1.47;1.23;;;;;;;22.95;48.24;99047.88;5036240;28;20275;-59
2021/09/28 00:12:07;;;;;;;1.57;1.43;;;;;;;22.96;48.12;99049.53;5036262;28;20229;-59
2021/09/28 00:14:34;;;;;;;1.10;1.10;;;;;;;22.92;48.07;99048.22;5036728;28;20188;-59
2021/09/28 00:17:00;;;;;;;1.10;1.10;;;;;;;22.93;48.00;99054.38;5036644;28;20544;-59
2021/09/28 00:19:27;;;;;;;1.17;1.17;;;;;;;22.94;48.08;99056.88;5035999;28;20621;-59
2021/09/28 00:21:53;;;;;;;1.40;1.30;;;;;;;22.94;48.26;99062.19;5036042;28;20192;-59
2021/09/28 00:24:20;;;;;;;1.37;1.30;;;;;;;22.92;48.15;99074.84;5036566;28;20193;-59
2021/09/28 00:26:46;;;;;;;1.87;1.40;;;;;;;22.95;48.06;99074.50;5036051;28;20197;-59
2021/09/28 00:29:12;;;;;;;1.10;1.10;;;;;;;22.91;48.34;99069.69;5035856;28;20202;-59
2021/09/28 00:31:39;;;;;;;1.17;1.17;;;;;;;22.94;48.15;99072.84;5035908;28;20236;-59
2021/09/28 00:34:05;;;;;;;1.30;1.20;;;;;;;22.92;48.06;99061.53;5035887;28;20205;-59
2021/09/28 00:36:32;;;;;;;1.17;1.10;;;;;;;22.95;47.89;99069.16;5036094;28;20248;-59
2021/09/28 00:38:59;;;;;;;1.17;1.17;;;;;;;22.96;47.86;99070.81;5035629;28;20209;-59
2021/09/28 00:41:25;;;;;;;1.10;1.10;;;;;;;22.95;47.89;99060.34;5035742;28;20569;-59
2021/09/28 00:43:54;;;;;;;1.30;1.20;;;;;;;22.95;47.92;99061.19;5035717;28;20559;-59
2021/09/28 00:46:22;;;;;;;1.47;1.37;;;;;;;22.96;47.76;99059.34;5035909;28;20205;-59
2021/09/28 00:48:50;;;;;;;1.03;1.03;;;;;;;23.01;47.91;99061.47;5035563;28;20206;-59
2021/09/28 00:51:17;;;;;;;1.10;1.00;;;;;;;23.01;47.96;99067.63;5035642;28;20616;-59
2021/09/28 00:53:46;;;;;;;1.37;1.20;;;;;;;23.02;47.62;99069.28;5035513;28;20197;-59
2021/09/28 00:56:15;;;;;;;1.43;1.30;;;;;;;22.97;47.97;99072.47;5035425;28;20696;-59
2021/09/28 00:58:42;;;;;;;1.10;1.10;;;;;;;22.95;47.78;99079.81;5035418;28;20214;-59
2021/09/28 01:01:10;;;;;;;1.13;1.10;;;;;;;22.95;47.93;99081.63;5035637;28;20190;-59
2021/09/28 01:03:37;;;;;;;1.10;1.10;;;;;;;22.95;47.79;99085.13;5035303;28;20592;-59
2021/09/28 01:06:04;;;;;;;1.50;1.20;;;;;;;22.99;47.53;99082.94;5035271;28;20195;-59
2021/09/28 01:08:31;;;;;;;1.20;1.20;;;;;;;23.02;47.77;99087.94;5034128;28;20210;-59
2021/09/28 01:10:58;;;;;;;1.30;1.10;;;;;;;22.92;47.91;99089.97;5035450;28;20200;-60
2021/09/28 01:13:25;;;;;;;1.33;1.23;;;;;;;22.89;48.11;99091.13;5035414;28;20603;-59
2021/09/28 01:15:58;;;;;;;1.00;1.00;;;;;;;22.87;47.95;99093.16;5035085;28;20198;-59
2021/09/28 01:18:26;;;;;;;1.10;1.10;;;;;;;22.85;48.13;99095.16;5034951;28;20216;-59
2021/09/28 01:20:53;;;;;;;1.27;1.10;;;;;;;22.84;47.94;99098.81;5035236;28;20193;-57
2021/09/28 01:23:20;;;;;;;1.30;1.20;;;;;;;22.83;48.21;99097.16;5034938;28;20190;-59
2021/09/28 01:25:46;;;;;;;1.37;1.20;;;;;;;22.84;48.10;99098.81;5034896;28;20194;-59
2021/09/28 01:28:13;;;;;;;1.00;1.00;;;;;;;22.83;48.05;99100.63;5034751;28;20696;-59
2021/09/28 01:30:39;;;;;;;1.27;1.20;;;;;;;22.83;48.06;99103.31;5034846;28;20195;-59
2021/09/28 01:33:06;;;;;;;1.77;1.20;;;;;;;22.84;48.08;99101.47;5034980;28;20619;-59
2021/09/28 01:35:35;;;;;;;0.90;0.90;;;;;;;22.83;47.96;99099.81;5034713;28;20240;-57
2021/09/28 01:38:01;;;;;;;1.37;1.27;;;;;;;22.82;48.11;99096.31;5034550;28;20216;-59
2021/09/28 01:40:28;;;;;;;1.20;1.20;;;;;;;22.82;48.12;99104.31;5035148;28;20190;-59
2021/09/28 01:42:54;;;;;;;1.27;1.17;;;;;;;22.81;47.95;99105.31;5034804;28;20553;-59
2021/09/28 01:45:21;;;;;;;1.00;1.00;;;;;;;22.81;48.07;99115.13;5034521;28;20657;-59
2021/09/28 01:47:47;;;;;;;1.57;1.00;;;;;;;22.80;48.13;99116.16;5034608;28;20264;-59
2021/09/28 01:50:14;;;;;;;2.00;1.40;;;;;;;22.80;48.16;99118.81;5033178;28;20219;-59
2021/09/28 01:52:40;;;;;;;0.90;0.90;;;;;;;22.79;48.07;99111.81;5034444;28;20197;-59
2021/09/28 01:55:07;;;;;;;1.27;1.00;;;;;;;22.79;48.09;99123.28;5034402;28;20197;-59
2021/09/28 01:57:34;;;;;;;1.10;1.00;;;;;;;22.78;48.13;99116.31;5034201;28;20194;-60
2021/09/28 02:00:02;;;;;;;1.10;1.10;;;;;;;22.79;48.04;99119.81;5034189;28;20213;-59
2021/09/28 02:02:37;;;;;;;1.10;1.00;;;;;;;22.80;47.93;99132.13;5034252;28;20236;-59
2021/09/28 02:05:04;;;;;;;1.00;1.00;;;;;;;22.77;47.99;99130.63;5034142;28;20194;-59
2021/09/28 02:07:30;;;;;;;1.30;1.20;;;;;;;22.75;48.33;99131.78;5034098;28;20355;-59
2021/09/28 02:09:57;;;;;;;1.00;1.00;;;;;;;22.76;48.12;99126.28;5034020;28;20194;-59
2021/09/28 02:12:23;;;;;;;0.80;0.80;;;;;;;22.76;47.94;99115.66;5034197;28;20596;-59
2021/09/28 02:14:50;;;;;;;1.10;1.00;;;;;;;22.76;48.04;99117.50;5034002;28;20186;-59
2021/09/28 02:17:16;;;;;;;1.10;0.90;;;;;;;22.75;48.10;99115.81;5034167;28;20192;-60
2021/09/28 02:19:43;;;;;;;1.33;1.23;;;;;;;22.79;48.09;99114.50;5033514;28;20676;-58
2021/09/28 02:22:09;;;;;;;0.80;0.80;;;;;;;22.79;48.04;99111.81;5034109;28;20649;-59
2021/09/28 02:24:36;;;;;;;1.10;1.00;;;;;;;22.78;48.08;99112.84;5034051;28;20186;-59
2021/09/28 02:27:02;;;;;;;1.00;1.00;;;;;;;22.77;48.15;99116.50;5033742;28;20190;-59
2021/09/28 02:29:29;;;;;;;1.10;1.00;;;;;;;22.75;48.21;99105.16;5033632;28;20219;-59
2021/09/28 02:31:55;;;;;;;1.27;1.07;;;;;;;22.76;48.00;99110.34;5033691;28;20661;-59
2021/09/28 02:34:22;;;;;;;0.97;0.97;;;;;;;22.75;47.95;99108.69;5033598;28;20186;-59
2021/09/28 02:36:48;;;;;;;1.13;0.90;;;;;;;22.76;48.05;99104.19;5033625;28;20189;-59
2021/09/28 02:39:15;;;;;;;1.57;1.10;;;;;;;22.78;47.98;99107.50;5032233;28;20264;-59
2021/09/28 02:41:42;;;;;;;1.00;1.00;;;;;;;22.79;47.80;99120.63;5033649;28;20204;-59
2021/09/28 02:44:13;;;;;;;0.90;0.90;;;;;;;22.79;47.99;99117.97;5033800;28;20174;-59
2021/09/28 02:46:40;;;;;;;1.30;1.20;;;;;;;22.76;47.92;99118.31;5033449;28;20197;-59
2021/09/28 02:49:06;;;;;;;0.80;0.80;;;;;;;22.76;47.82;99117.50;5033306;28;20206;-59
2021/09/28 02:51:32;;;;;;;1.13;1.03;;;;;;;22.77;48.09;99116.50;5033382;28;20718;-59
2021/09/28 02:53:59;;;;;;;1.20;1.03;;;;;;;22.77;47.91;99127.13;5033621;28;20217;-59
2021/09/28 02:56:25;;;;;;;1.50;1.20;;;;;;;22.78;47.76;99131.47;5033335;28;20209;-59
2021/09/28 02:58:52;;;;;;;1.40;1.27;;;;;;;22.76;47.99;99122.81;5033204;28;20213;-59
2021/09/28 03:01:18;;;;;;;0.97;0.97;;;;;;;22.77;47.86;99129.81;5033266;28;20660;-59
2021/09/28 03:03:45;;;;;;;1.30;1.20;;;;;;;22.75;47.86;99115.81;5033185;28;20190;-59
2021/09/28 03:06:12;;;;;;;1.13;1.00;;;;;;;22.77;47.82;99124.47;5033433;28;20190;-59
2021/09/28 03:08:38;;;;;;;1.07;1.07;;;;;;;22.74;47.82;99125.66;5033248;28;20236;-59
2021/09/28 03:11:07;;;;;;;1.00;1.00;;;;;;;22.78;47.93;99128.78;5033130;28;20664;-59
2021/09/28 03:13:34;;;;;;;0.80;0.80;;;;;;;22.77;47.82;99130.63;5033284;28;20194;-59
2021/09/28 03:16:00;;;;;;;1.07;1.07;;;;;;;22.74;47.94;99135.44;5033073;28;20193;-59
2021/09/28 03:18:27;;;;;;;1.30;1.20;;;;;;;22.71;47.90;99136.63;5032989;28;20260;-59
2021/09/28 03:20:53;;;;;;;0.90;0.90;;;;;;;22.69;48.00;99134.13;5033035;28;20561;-59
2021/09/28 03:23:20;;;;;;;0.90;0.90;;;;;;;22.71;47.97;99130.47;5033317;28;20213;-59
2021/09/28 03:25:47;;;;;;;1.00;0.90;;;;;;;22.69;48.02;99128.81;5033074;28;20257;-60
2021/09/28 03:28:15;;;;;;;1.10;1.10;;;;;;;22.69;47.78;99122.69;5033105;28;20216;-60
2021/09/28 03:30:42;;;;;;;1.00;1.00;;;;;;;22.69;48.06;99123.50;5015426;28;20197;-58
2021/09/28 03:33:08;;;;;;;1.00;1.00;;;;;;;22.72;47.72;99122.34;5036983;28;20224;-61
2021/09/28 03:35:35;;;;;;;0.80;0.80;;;;;;;22.71;48.04;99123.34;5037299;28;20188;-60
2021/09/28 03:38:02;;;;;;;1.23;0.93;;;;;;;22.68;48.00;99126.34;5035865;28;20300;-61
2021/09/28 03:40:30;;;;;;;0.80;0.80;;;;;;;22.66;47.92;99123.84;5036872;28;20676;-61
2021/09/28 03:42:57;;;;;;;0.83;0.83;;;;;;;22.67;47.96;99125.50;5036984;28;20207;-60
2021/09/28 03:45:23;;;;;;;0.80;0.80;;;;;;;22.68;47.96;99123.69;5037105;28;20190;-60
2021/09/28 03:47:50;;;;;;;0.97;0.93;;;;;;;22.64;47.98;99122.34;5036780;28;20593;-60
2021/09/28 03:50:16;;;;;;;0.77;0.77;;;;;;;22.64;48.00;99125.00;5036680;28;20240;-60
2021/09/28 03:52:43;;;;;;;0.90;0.90;;;;;;;22.63;47.98;99124.19;5035424;28;20208;-60
2021/09/28 03:55:10;;;;;;;1.50;0.87;;;;;;;22.63;48.04;99121.53;5037166;28;20205;-60
2021/09/28 03:57:37;;;;;;;0.90;0.90;;;;;;;22.66;48.04;99115.03;5036458;28;20724;-61
2021/09/28 04:00:04;;;;;;;1.27;0.70;;;;;;;22.65;47.82;99116.03;5036693;28;20206;-60
2021/09/28 04:02:30;;;;;;;0.90;0.90;;;;;;;22.66;47.88;99126.50;5036935;28;20616;-60
2021/09/28 04:04:57;;;;;;;0.97;0.90;;;;;;;22.65;47.93;99124.84;5036463;28;20195;-60
2021/09/28 04:07:24;;;;;;;0.97;0.97;;;;;;;22.63;48.13;99129.50;5036392;28;20186;-60
2021/09/28 04:09:50;;;;;;;0.90;0.90;;;;;;;22.66;48.03;99138.97;5036342;28;20206;-60
2021/09/28 04:12:18;;;;;;;0.87;0.87;;;;;;;22.63;47.88;99142.81;5036610;28;20190;-60
2021/09/28 04:14:46;;;;;;;0.90;0.90;;;;;;;22.64;47.91;99139.16;5036246;28;20190;-60
2021/09/28 04:17:12;;;;;;;0.90;0.90;;;;;;;22.58;47.89;99137.16;5036198;28;20682;-60
2021/09/28 04:19:39;;;;;;;0.90;0.90;;;;;;;22.59;48.13;99138.00;5036019;28;20260;-60
2021/09/28 04:22:06;;;;;;;1.17;1.00;;;;;;;22.61;48.14;99142.16;5036417;28;20251;-60
2021/09/28 04:24:33;;;;;;;0.90;0.90;;;;;;;22.62;48.00;99142.97;5036049;28;20194;-60
2021/09/28 04:26:59;;;;;;;1.10;1.00;;;;;;;22.62;47.92;99159.78;5036069;28;20316;-60
2021/09/28 04:29:25;;;;;;;1.60;1.00;;;;;;;22.62;47.93;99154.47;5035898;28;20209;-60
2021/09/28 04:31:52;;;;;;;0.70;0.70;;;;;;;22.62;47.79;99153.63;5035840;28;20197;-60
2021/09/28 04:34:19;;;;;;;1.37;0.90;;;;;;;22.61;48.05;99146.63;5035896;28;20197;-60
2021/09/28 04:36:45;;;;;;;0.90;0.90;;;;;;;22.62;47.73;99154.47;5036201;28;20186;-60
2021/09/28 04:39:13;;;;;;;1.30;1.10;;;;;;;22.62;47.89;99153.63;5036094;28;20229;-60
2021/09/28 04:41:39;;;;;;;0.90;0.90;;;;;;;22.60;47.96;99151.13;5035981;28;20193;-60
2021/09/28 04:44:06;;;;;;;1.00;0.90;;;;;;;22.61;47.95;99160.78;5035921;28;20194;-60
2021/09/28 04:46:33;;;;;;;1.07;1.00;;;;;;;22.60;47.84;99158.28;5035924;28;20678;-59
2021/09/28 04:48:59;;;;;;;0.70;0.70;;;;;;;22.60;47.80;99156.47;5035647;28;20619;-60
2021/09/28 04:51:25;;;;;;;1.20;1.10;;;;;;;22.58;47.94;99153.13;5035543;28;20194;-60
2021/09/28 04:53:52;;;;;;;0.90;0.90;;;;;;;22.57;48.14;99150.66;5035595;28;20212;-60
2021/09/28 04:56:19;;;;;;;0.80;0.80;;;;;;;22.58;47.97;99154.97;5035799;28;20216;-60
2021/09/28 04:58:47;;;;;;;0.70;0.70;;;;;;;22.57;47.96;99159.44;5035425;28;20229;-60
2021/09/28 05:01:14;;;;;;;0.83;0.83;;;;;;;22.56;48.00;99156.97;5035345;28;20218;-60
2021/09/28 05:03:41;;;;;;;0.80;0.80;;;;;;;22.57;47.97;99154.13;5035601;28;20201;-60
2021/09/28 05:06:08;;;;;;;1.37;1.00;;;;;;;22.60;47.56;99161.78;5035361;28;20186;-60
2021/09/28 05:08:34;;;;;;;0.87;0.87;;;;;;;22.60;47.95;99156.47;5035342;28;20262;-60
2021/09/28 05:11:01;;;;;;;0.80;0.80;;;;;;;22.62;47.93;99159.78;5035412;28;20526;-60
2021/09/28 05:13:28;;;;;;;0.70;0.70;;;;;;;22.61;47.89;99157.28;5035484;28;20592;-60
2021/09/28 05:15:55;;;;;;;0.90;0.90;;;;;;;22.59;47.78;99146.78;5035189;28;20189;-60
2021/09/28 05:18:21;;;;;;;0.97;0.87;;;;;;;22.61;47.93;99133.34;5035336;28;20217;-60
2021/09/28 05:20:48;;;;;;;0.80;0.80;;;;;;;22.62;47.67;99140.31;5035236;28;20214;-60
2021/09/28 05:23:14;;;;;;;1.10;1.00;;;;;;;22.60;47.86;99144.97;5035246;28;20652;-60
2021/09/28 05:25:41;;;;;;;0.70;0.70;;;;;;;22.61;47.70;99146.63;5035441;28;20575;-60
2021/09/28 05:28:07;;;;;;;0.80;0.80;;;;;;;22.58;47.97;99147.78;5035202;28;20258;-60
2021/09/28 05:30:34;;;;;;;0.80;0.80;;;;;;;22.58;47.65;99142.47;5034853;28;20182;-60
2021/09/28 05:33:00;;;;;;;0.80;0.80;;;;;;;22.57;47.72;99140.81;5034816;28;20193;-59
2021/09/28 05:35:27;;;;;;;0.77;0.77;;;;;;;22.59;47.68;99146.78;5034122;28;20195;-59
2021/09/28 05:37:54;;;;;;;0.80;0.80;;;;;;;22.62;47.65;99141.16;5034664;28;20217;-60
2021/09/28 05:40:20;;;;;;;1.00;0.90;;;;;;;22.65;47.47;99145.28;5034561;28;20202;-59
2021/09/28 05:42:46;;;;;;;0.90;0.90;;;;;;;22.74;47.58;99156.72;5034895;28;20525;-59
2021/09/28 05:45:13;;;;;;;0.80;0.80;;;;;;;22.76;47.46;99144.91;5034816;28;20243;-59
2021/09/28 05:47:40;;;;;;;1.10;1.00;;;;;;;22.84;47.30;99149.38;5034387;28;20190;-60
2021/09/28 05:50:07;;;;;;;1.53;0.70;;;;;;;22.88;47.06;99152.53;5034452;28;20178;-59
2021/09/28 05:52:35;;;;;;;0.83;0.83;;;;;;;22.87;47.22;99156.19;5034680;28;20726;-59
2021/09/28 05:55:02;;;;;;;0.70;0.70;;;;;;;22.92;47.08;99154.69;5033794;28;20194;-59
2021/09/28 05:57:29;;;;;;;0.80;0.80;;;;;;;22.94;46.97;99158.00;5034859;28;20182;-59
2021/09/28 05:59:55;;;;;;;0.87;0.87;;;;;;;22.97;46.84;99167.44;5034201;28;20209;-59
2021/09/28 06:02:22;;;;;;;0.77;0.77;;;;;;;23.00;46.74;99166.28;5034442;28;20190;-60
2021/09/28 06:04:48;;;;;;;1.13;0.80;;;;;;;23.03;46.89;99158.78;5034273;28;20219;-59
2021/09/28 06:07:20;;;;;;;0.70;0.70;;;;;;;23.04;46.80;99165.78;5034169;28;20252;-59
2021/09/28 06:09:48;;;;;;;0.80;0.80;;;;;;;23.04;46.78;99162.25;5034077;28;20688;-58
2021/09/28 06:12:15;;;;;;;0.80;0.80;;;;;;;23.03;46.89;99152.63;5034416;28;20602;-60
2021/09/28 06:14:42;;;;;;;1.00;1.00;;;;;;;23.07;46.79;99154.78;5034321;28;20722;-59
2021/09/28 06:17:09;;;;;;;0.90;0.80;;;;;;;23.09;46.72;99146.63;5034368;28;20186;-60
2021/09/28 06:19:37;;;;;;;0.67;0.67;;;;;;;23.15;46.66;99161.88;5034241;28;20619;-60
2021/09/28 06:22:05;;;;;;;0.80;0.80;;;;;;;23.15;46.83;99153.91;5034105;28;20197;-60
2021/09/28 06:24:32;;;;;;;1.80;0.73;;;;;;;23.18;46.60;99158.88;5032758;28;20249;-60
2021/09/28 06:27:00;;;;;;;0.70;0.70;;;;;;;23.18;46.72;99156.22;5033874;28;20200;-61
2021/09/28 06:29:28;;;;;;;0.70;0.70;;;;;;;23.17;46.78;99162.53;5033686;28;20248;-61
2021/09/28 06:31:54;;;;;;;1.63;1.10;;;;;;;23.14;46.92;99156.72;5033473;28;20221;-60
2021/09/28 06:34:21;;;;;;;0.90;0.90;;;;;;;23.10;47.10;99151.75;5033666;28;20240;-61
2021/09/28 06:36:48;;;;;;;1.07;0.80;;;;;;;23.08;47.11;99159.09;5033568;28;20193;-61
2021/09/28 06:39:14;;;;;;;1.27;0.90;;;;;;;23.11;46.96;99155.25;5033733;28;20256;-60
2021/09/28 06:41:41;;;;;;;0.90;0.80;;;;;;;23.12;46.78;99159.56;5033497;28;20292;-61
2021/09/28 06:44:08;;;;;;;0.97;0.97;;;;;;;23.12;46.78;99151.59;5033493;28;20189;-60
2021/09/28 06:46:35;;;;;;;0.97;0.97;;;;;;;23.14;46.87;99144.25;5033697;28;20649;-57
2021/09/28 06:49:02;;;;;;;1.70;0.80;;;;;;;23.13;47.09;99145.25;5033621;28;20343;-61
2021/09/28 06:51:29;;;;;;;1.10;0.70;;;;;;;23.12;46.94;99151.59;5033321;28;20229;-61
2021/09/28 06:53:55;;;;;;;1.93;0.90;;;;;;;23.12;46.99;99148.94;5033333;28;20534;-61
2021/09/28 06:56:22;;;;;;;0.93;0.80;;;;;;;23.14;47.08;99146.91;5033318;28;20198;-61
2021/09/28 06:58:48;;;;;;;0.90;0.90;;;;;;;23.15;46.97;99147.72;5033142;28;20213;-61
2021/09/28 07:01:15;;;;;;;0.97;0.80;;;;;;;23.17;47.15;99153.75;5033109;28;20297;-61
2021/09/28 07:03:42;;;;;;;3.47;0.90;;;;;;;23.16;47.21;99155.56;5033761;28;20186;-61
2021/09/28 07:06:08;;;;;;;1.87;1.00;;;;;;;23.15;47.12;99148.56;5032466;28;20190;-61
2021/09/28 07:08:35;;;;;;;0.87;0.80;;;;;;;23.14;47.09;99146.06;5033037;28;20268;-61
2021/09/28 07:11:02;;;;;;;1.13;1.03;;;;;;;23.12;47.22;99146.25;5033170;28;20192;-61
2021/09/28 07:13:28;;;;;;;1.10;1.00;;;;;;;23.09;47.39;99150.09;5033084;28;20233;-61
2021/09/28 07:15:54;;;;;;;1.50;1.10;;;;;;;23.06;47.23;99155.78;5033101;28;20235;-61
2021/09/28 07:18:21;;;;;;;0.80;0.80;;;;;;;23.05;47.35;99155.94;5033013;28;20205;-61
2021/09/28 07:20:48;;;;;;;1.00;0.80;;;;;;;23.06;47.29;99160.25;5032847;28;20271;-62
2021/09/28 07:23:15;;;;;;;1.13;1.13;;;;;;;23.03;47.45;99153.47;5032970;28;20599;-61
2021/09/28 07:25:41;;;;;;;0.80;0.80;;;;;;;23.01;47.51;99154.63;5032841;28;20197;-61
2021/09/28 07:28:08;;;;;;;1.10;1.00;;;;;;;22.98;47.56;99150.47;5032778;28;20210;-61
2021/09/28 07:30:35;;;;;;;0.80;0.80;;;;;;;22.99;47.33;99148.66;5032865;28;20189;-61
2021/09/28 07:33:02;;;;;;;1.93;1.00;;;;;;;23.01;47.50;99151.97;5032819;28;20197;-62
2021/09/28 07:35:29;;;;;;;1.50;1.00;;;;;;;22.96;47.59;99150.66;5033083;28;20189;-61
2021/09/28 07:37:56;;;;;;;1.23;0.90;;;;;;;22.96;47.77;99161.31;5032715;28;20221;-61
2021/09/28 07:40:23;;;;;;;1.60;1.20;;;;;;;22.90;47.93;99154.00;5032925;28;20202;-61
2021/09/28 07:42:50;;;;;;;1.50;1.00;;;;;;;22.91;47.83;99154.84;5032856;28;20189;-61
2021/09/28 07:45:16;;;;;;;1.27;1.17;;;;;;;22.90;48.14;99161.16;5032639;28;20682;-61
2021/09/28 07:47:43;;;;;;;2.03;1.10;;;;;;;22.88;47.68;99169.31;5032583;28;20242;-61
2021/09/28 07:50:10;;;;;;;1.33;1.13;;;;;;;22.87;47.89;99167.66;5032894;28;20617;-61
2021/09/28 07:52:36;;;;;;;2.30;1.10;;;;;;;22.91;47.62;99168.97;5032595;28;20190;-61
2021/09/28 07:55:03;;;;;;;1.60;1.20;;;;;;;22.95;47.67;99167.63;5032632;28;20194;-61
2021/09/28 07:57:29;;;;;;;3.13;1.30;;;;;;;22.98;47.51;99169.09;5031300;28;20201;-61
2021/09/28 07:59:56;;;;;;;0.93;0.93;;;;;;;22.99;47.75;99169.94;5032358;28;20271;-61
2021/09/28 08:02:23;;;;;;;1.50;1.20;;;;;;;23.02;47.68;99172.25;5032560;28;20668;-61
2021/09/28 08:04:51;;;;;;;1.80;0.90;;;;;;;22.99;47.62;99172.63;5032769;28;20193;-62
2021/09/28 08:07:18;;;;;;;1.10;1.00;;;;;;;22.99;47.79;99172.63;5032736;28;20240;-61
2021/09/28 08:09:44;;;;;;;1.80;1.13;;;;;;;23.02;47.58;99174.91;5032342;28;20878;-62
2021/09/28 08:12:11;;;;;;;1.63;1.00;;;;;;;22.99;47.94;99172.63;5032371;28;20186;-61
2021/09/28 08:14:38;;;;;;;1.10;1.00;;;;;;;22.97;47.68;99168.28;5032420;28;20194;-63
2021/09/28 08:17:05;;;;;;;1.27;0.90;;;;;;;23.02;47.84;99174.91;5033051;28;20200;-62
2021/09/28 08:19:39;;;;;;;1.33;1.20;;;;;;;22.97;47.89;99172.78;5036072;28;20707;-62
2021/09/28 08:22:09;;;;;;;1.90;1.20;;;;;;;22.99;47.81;99180.59;5035895;28;20198;-61
2021/09/28 08:24:40;;;;;;;1.03;0.97;;;;;;;22.95;47.93;99170.31;5034709;28;20267;-61
2021/09/28 08:29:53;;;;;;;2.27;1.10;;;;;;;22.96;47.72;99161.31;5035950;28;20209;-61
2021/09/28 08:32:20;;;;;;;1.30;1.20;;;;;;;22.96;47.87;99166.63;5035853;28;20190;-62
2021/09/28 08:34:46;;;;;;;1.33;1.23;;;;;;;22.97;47.99;99167.44;5035762;28;20190;-61
2021/09/28 08:37:14;;;;;;;2.07;1.37;;;;;;;22.96;48.00;99157.81;5035781;28;20252;-61
2021/09/28 08:39:41;;;;;;;1.40;1.30;;;;;;;22.94;48.03;99163.31;5035828;28;20210;-61
2021/09/28 08:42:07;;;;;;;2.27;1.30;;;;;;;22.94;47.89;99163.31;5035475;28;20210;-61
2021/09/28 08:44:34;;;;;;;1.50;1.40;;;;;;;22.94;47.77;99158.00;5035581;28;20197;-61
2021/09/28 08:47:00;;;;;;;1.60;1.20;;;;;;;22.92;48.02;99160.00;5034187;28;20200;-61
2021/09/28 08:49:27;;;;;;;1.37;1.20;;;;;;;22.92;48.07;99145.84;5035396;28;20719;-61
2021/09/28 08:51:53;;;;;;;1.37;1.13;;;;;;;22.91;47.97;99145.00;5035436;28;20186;-60
2021/09/28 08:54:20;;;;;;;2.70;1.40;;;;;;;22.94;47.68;99138.53;5035519;28;20205;-61
2021/09/28 08:56:47;;;;;;;7.67;4.83;;;;;;;22.87;47.47;99146.38;5035313;28;20190;-61
2021/09/28 08:59:15;;;;;;;7.23;4.50;;;;;;;22.71;47.01;99154.41;5035246;28;20209;-61
2021/09/28 09:01:56;;;;;;;5.20;3.60;;;;;;;22.65;47.02;99159.44;5035480;28;20256;-61
2021/09/28 09:04:25;;;;;;;3.13;2.70;;;;;;;22.63;47.03;99145.47;5035293;28;20194;-61
2021/09/28 09:06:54;;;;;;;4.40;2.80;;;;;;;22.67;47.09;99154.75;5035495;28;20189;-61
2021/09/28 09:09:47;;;;;;;4.47;2.50;;;;;;;22.73;47.19;99153.25;5035432;28;20212;-61
2021/09/28 09:12:28;;;;;;;4.40;2.50;;;;;;;22.71;47.44;99149.94;5035146;28;20240;-61
2021/09/28 09:15:22;;;;;;;3.20;2.30;;;;;;;22.69;47.44;99143.97;5035260;28;20617;-61
2021/09/28 09:17:51;;;;;;;2.57;2.20;;;;;;;22.69;47.38;99150.09;5035133;28;20220;-61
2021/09/28 09:20:33;;;;;;;2.80;2.47;;;;;;;22.71;47.48;99141.13;5034217;28;20190;-61
2021/09/28 09:23:18;;;;;;;3.63;2.23;;;;;;;22.74;47.41;99140.75;5034912;28;20216;-61
2021/09/28 09:25:46;;;;;;;4.27;2.43;;;;;;;22.74;47.54;99138.09;5035382;28;20178;-61
2021/09/28 09:28:31;;;;;;;4.10;2.47;;;;;;;22.75;47.38;99134.44;5034468;28;20239;-61
2021/09/28 09:31:22;;;;;;;3.70;2.37;;;;;;;22.73;47.70;99134.63;5034944;28;20182;-61
2021/09/28 09:33:51;;;;;;;2.50;2.30;;;;;;;22.74;47.66;99140.75;5033713;28;20175;-61
2021/09/28 09:36:20;;;;;;;2.67;2.27;;;;;;;22.72;47.52;99138.28;5035104;28;20225;-61
2021/09/28 09:38:48;;;;;;;2.63;2.37;;;;;;;22.72;47.59;99140.09;5034527;28;20234;-61
2021/09/28 09:41:15;;;;;;;2.40;2.20;;;;;;;22.65;47.86;99138.16;5034512;28;20213;-60
2021/09/28 09:43:43;;;;;;;2.57;2.13;;;;;;;22.66;47.69;99129.16;5034481;28;20204;-61
2021/09/28 09:46:12;;;;;;;2.17;1.90;;;;;;;22.66;47.84;99115.88;5034709;28;20228;-60
2021/09/28 09:48:40;;;;;;;2.30;2.10;;;;;;;22.68;47.73;99119.19;5034459;28;20206;-60
2021/09/28 09:51:13;;;;;;;2.80;2.10;;;;;;;22.68;47.79;99119.19;5034253;28;20189;-60
2021/09/28 09:54:00;;;;;;;3.07;2.27;;;;;;;22.69;47.67;99118.16;5034562;28;20186;-60
2021/09/28 09:56:42;;;;;;;2.20;2.00;;;;;;;22.72;47.70;99110.84;5034587;28;20656;-61
2021/09/28 09:59:09;;;;;;;2.43;2.10;;;;;;;22.71;47.68;99120.69;5034027;28;20601;-60
2021/09/28 10:01:36;;;;;;;3.67;2.40;;;;;;;22.71;47.73;99111.84;5033992;28;20521;-60
2021/09/28 10:04:10;;;;;;;2.13;2.03;;;;;;;22.73;47.67;99109.84;5034213;28;20189;-60
2021/09/28 10:06:37;;;;;;;2.87;2.40;;;;;;;22.72;47.63;99117.00;5034264;28;20209;-60
2021/09/28 10:09:13;;;;;;;2.40;2.20;;;;;;;22.74;47.60;99109.69;5034060;28;20707;-60
2021/09/28 10:11:40;;;;;;;2.33;2.00;;;;;;;22.75;47.79;99106.00;5034231;28;20183;-60
2021/09/28 10:14:27;;;;;;;2.30;2.13;;;;;;;22.76;47.69;99104.19;5033794;28;20194;-60
2021/09/28 10:16:56;;;;;;;2.23;2.03;;;;;;;22.75;47.74;99107.84;5033764;28;20197;-60
2021/09/28 10:19:29;;;;;;;2.33;2.10;;;;;;;22.77;47.91;99095.22;5033668;28;20699;-60
2021/09/28 10:21:57;;;;;;;2.20;2.00;;;;;;;22.78;47.78;99094.22;5034212;28;20691;-61
2021/09/28 10:24:34;;;;;;;2.20;2.07;;;;;;;22.79;47.75;99090.53;5033912;28;20193;-60
2021/09/28 10:27:01;;;;;;;2.47;2.20;;;;;;;22.80;47.77;99086.88;5033821;28;20188;-61
2021/09/28 10:29:41;;;;;;;2.27;2.00;;;;;;;22.80;47.91;99076.22;5033596;28;20205;-60
2021/09/28 10:32:28;;;;;;;2.40;2.20;;;;;;;22.82;47.78;99076.88;5033454;28;20232;-61
2021/09/28 10:35:01;;;;;;;3.07;2.10;;;;;;;22.83;47.85;99081.19;5033808;28;20193;-60
2021/09/28 10:37:49;;;;;;;2.20;2.00;;;;;;;22.85;47.83;99079.19;5034010;28;20170;-60
2021/09/28 10:40:19;;;;;;;2.20;2.00;;;;;;;22.86;48.07;99083.50;5033184;28;20236;-60
2021/09/28 10:43:02;;;;;;;3.27;2.13;;;;;;;22.87;47.89;99081.69;5033413;28;20312;-60
2021/09/28 10:45:29;;;;;;;2.30;2.10;;;;;;;22.86;47.99;99080.84;5033841;28;20175;-60
2021/09/28 10:47:59;;;;;;;3.00;2.20;;;;;;;22.87;47.80;99087.81;5033179;28;20217;-61
2021/09/28 10:50:41;;;;;;;2.13;1.93;;;;;;;22.88;47.86;99083.34;5033500;28;20229;-60
2021/09/28 10:53:28;;;;;;;2.20;2.00;;;;;;;22.85;47.92;99089.84;5033425;28;20554;-60
2021/09/28 10:55:55;;;;;;;2.37;2.10;;;;;;;22.83;48.08;99081.19;5033388;28;20579;-58
2021/09/28 10:58:22;;;;;;;2.20;2.00;;;;;;;22.80;47.83;99076.22;5032941;28;20300;-60
2021/09/28 11:00:49;;;;;;;2.17;1.97;;;;;;;22.79;47.78;99077.25;5032928;28;20210;-60
2021/09/28 11:03:17;;;;;;;3.63;2.40;;;;;;;22.78;47.91;99065.75;5033124;28;20277;-58
2021/09/28 11:05:56;;;;;;;3.43;2.00;;;;;;;22.84;47.69;99061.56;5033089;28;20293;-58
2021/09/28 11:08:23;;;;;;;4.73;1.57;;;;;;;22.78;47.01;99057.78;5033179;28;20254;-61
2021/09/28 11:10:57;;;;;;;5.07;2.00;;;;;;;22.71;45.84;99053.31;5033494;28;20217;-61
2021/09/28 11:13:32;;;;;;;2.97;1.57;;;;;;;22.65;45.03;99041.53;5033956;28;20248;-61
2021/09/28 11:16:01;;;;;;;5.70;2.00;;;;;;;22.60;44.64;99038.56;5033482;28;20173;-61
2021/09/28 11:18:28;;;;;;;3.13;1.70;;;;;;;22.56;44.41;99043.41;5032823;28;20573;-61
2021/09/28 11:21:10;;;;;;;4.30;1.53;;;;;;;22.53;43.93;99033.97;5032797;28;20681;-62
2021/09/28 11:23:38;;;;;;;3.63;1.77;;;;;;;22.52;44.28;99027.00;5033434;28;20189;-60
2021/09/28 11:26:05;;;;;;;2.83;1.70;;;;;;;22.51;43.65;99029.81;5031719;28;20190;-61
2021/09/28 11:28:32;;;;;;;4.33;1.47;;;;;;;22.49;43.15;99031.81;5032721;28;20245;-61
2021/09/28 11:31:04;;;;;;;3.40;1.30;;;;;;;22.44;42.68;99024.31;5032659;28;20186;-61
2021/09/28 11:33:39;;;;;;;4.20;1.50;;;;;;;22.37;42.45;99015.38;5032966;28;20236;-60
2021/09/28 11:36:12;;;;;;;3.47;1.27;;;;;;;22.33;42.13;99008.75;5032691;28;20184;-61
2021/09/28 11:38:44;;;;;;;3.90;1.50;;;;;;;22.29;42.39;99005.63;5032616;28;20206;-60
2021/09/28 11:41:16;;;;;;;2.53;1.23;;;;;;;22.30;42.03;99006.44;5033068;28;20198;-60
2021/09/28 11:43:52;;;;;;;4.07;1.10;;;;;;;22.30;41.83;99004.63;5032709;28;20640;-61